Time;durP1;ratioP1;P1;durP2;ratioP2;P2;SDS_P1;SDS_P2;PMS_P1;PMS_P2;Temp;Humidity;BMP_temperature;BMP_pressure;BME280_temperature;BME280_humidity;BME280_pressure;Samples;Min_cycle;Max_cycle;Signal;HPM_P1;HPM_P2
2022/06/25 00:00:41;;;;;;;0.77;0.30;;;;;;;18.71;64.66;96467.78;10371619;28;20037;-21
2022/06/25 00:05:42;;;;;;;2.13;0.53;;;;;;;18.68;64.22;96467.81;10365393;28;20121;-21
2022/06/25 00:10:42;;;;;;;0.63;0.27;;;;;;;18.65;64.10;96465.28;10367349;28;20041;-22
2022/06/25 00:15:43;;;;;;;0.73;0.30;;;;;;;18.69;64.17;96477.13;10366331;28;20042;-21
2022/06/25 00:20:44;;;;;;;1.47;0.30;;;;;;;18.44;64.58;96461.19;10366965;28;20296;-21
2022/06/25 00:25:45;;;;;;;2.05;0.47;;;;;;;18.62;64.48;96488.13;10425725;28;20060;-21
2022/06/25 00:30:45;;;;;;;2.55;0.40;;;;;;;18.55;64.45;96489.00;10376720;28;20061;-21
2022/06/25 00:35:46;;;;;;;1.23;0.30;;;;;;;18.40;64.70;96484.00;10364514;28;20088;-22
2022/06/25 00:40:46;;;;;;;0.70;0.40;;;;;;;18.48;64.75;96485.66;10366980;28;20038;-22
2022/06/25 00:45:47;;;;;;;3.60;0.57;;;;;;;18.49;64.38;96483.97;10370190;28;20034;-21
2022/06/25 00:50:47;;;;;;;2.83;0.30;;;;;;;18.51;64.34;96475.50;10376572;28;20041;-21
2022/06/25 00:55:49;;;;;;;2.30;0.43;;;;;;;18.48;64.33;96475.50;10413986;28;20038;-21
2022/06/25 01:00:51;;;;;;;1.52;0.43;;;;;;;18.32;64.33;96470.53;10387590;28;20030;-21
2022/06/25 01:05:52;;;;;;;2.80;0.80;;;;;;;18.32;64.87;96478.13;10372123;28;20026;-21
2022/06/25 01:10:52;;;;;;;4.13;0.60;;;;;;;18.32;65.19;96473.88;10373267;28;20120;-23
2022/06/25 01:15:53;;;;;;;1.52;0.63;;;;;;;18.23;65.50;96481.47;10372559;28;20038;-21
2022/06/25 01:20:54;;;;;;;1.42;0.32;;;;;;;18.22;65.43;96484.88;10371171;28;20045;-21
2022/06/25 01:25:55;;;;;;;0.60;0.50;;;;;;;18.36;64.53;96482.31;10433703;28;20067;-22
2022/06/25 01:30:56;;;;;;;0.52;0.50;;;;;;;18.15;65.25;96477.28;10390309;28;20091;-21
2022/06/25 01:35:57;;;;;;;2.25;0.57;;;;;;;18.10;65.34;96478.97;10371340;28;20038;-22
2022/06/25 01:41:00;;;;;;;3.55;0.50;;;;;;;18.23;64.69;96476.41;10372384;28;20073;-21
2022/06/25 01:46:01;;;;;;;2.50;0.30;;;;;;;18.17;65.05;96473.06;10371762;28;20060;-21
2022/06/25 01:51:02;;;;;;;0.80;0.40;;;;;;;18.26;64.55;96470.50;10376690;28;20287;-21
2022/06/25 01:56:03;;;;;;;1.80;0.47;;;;;;;18.13;64.89;96463.75;10410511;28;20288;-21
2022/06/25 02:01:04;;;;;;;2.35;0.32;;;;;;;18.11;65.06;96460.41;10385481;28;20033;-21
2022/06/25 02:06:05;;;;;;;1.08;0.30;;;;;;;18.07;65.33;96456.19;10368805;28;20111;-22
2022/06/25 02:11:08;;;;;;;1.60;0.40;;;;;;;18.08;65.21;96460.41;10370884;28;20180;-21
2022/06/25 02:16:11;;;;;;;0.73;0.35;;;;;;;18.05;64.79;96448.59;10369824;28;20069;-21
2022/06/25 02:21:11;;;;;;;0.30;0.23;;;;;;;18.08;64.67;96457.88;10370344;28;20164;-22
2022/06/25 02:26:12;;;;;;;0.55;0.25;;;;;;;18.12;64.35;96473.06;10435621;28;20352;-22
2022/06/25 02:31:12;;;;;;;1.20;1.10;;;;;;;17.98;65.20;96468.88;10372888;28;20041;-21
2022/06/25 02:36:13;;;;;;;3.03;0.35;;;;;;;18.12;64.60;96473.06;10367817;28;20034;-21
2022/06/25 02:41:14;;;;;;;1.90;0.50;;;;;;;17.94;65.33;96468.06;10368427;28;20037;-22
2022/06/25 02:46:14;;;;;;;1.40;0.38;;;;;;;17.91;65.42;96468.03;10382024;28;20297;-21
2022/06/25 02:51:15;;;;;;;1.58;0.40;;;;;;;17.91;65.50;96468.03;10376232;28;20403;-23
2022/06/25 03:01:37;;;;;;;0.43;0.38;;;;;;;17.86;65.27;96469.75;10367790;28;20034;-22
2022/06/25 03:06:37;;;;;;;0.70;0.40;;;;;;;17.85;65.16;96473.13;10383036;28;20041;-22
2022/06/25 03:11:38;;;;;;;1.60;0.40;;;;;;;17.84;65.33;96488.31;10368925;28;20309;-21
2022/06/25 03:16:38;;;;;;;1.30;0.30;;;;;;;17.78;65.25;96485.78;10367593;28;20038;-21
2022/06/25 03:21:44;;;;;;;0.30;0.30;;;;;;;17.82;65.03;96482.44;10366909;28;20492;-21
2022/06/25 03:26:45;;;;;;;1.38;0.30;;;;;;;17.84;64.39;96481.56;10436522;28;20042;-23
2022/06/25 03:31:45;;;;;;;0.40;0.30;;;;;;;17.94;64.10;96483.25;10367773;28;20088;-22
2022/06/25 03:37:04;;;;;;;0.63;0.30;;;;;;;17.93;64.28;96476.47;10367121;28;20041;-21
2022/06/25 03:42:06;;;;;;;1.85;0.40;;;;;;;17.82;64.95;96487.50;10365698;28;20361;-21
2022/06/25 03:47:32;;;;;;;0.95;0.20;;;;;;;17.74;64.90;96484.13;10367131;28;20038;-21
2022/06/25 03:52:35;;;;;;;1.08;0.40;;;;;;;17.70;65.07;96483.28;10370764;28;20034;-22
2022/06/25 03:57:36;;;;;;;0.80;0.30;;;;;;;17.86;64.50;96481.56;10366061;28;20037;-21
2022/06/25 04:02:47;;;;;;;1.85;0.40;;;;;;;17.84;64.43;96481.56;10365771;28;20045;-21
2022/06/25 04:08:13;;;;;;;0.20;0.20;;;;;;;17.79;64.55;96498.47;10366881;28;20046;-21
2022/06/25 04:13:14;;;;;;;0.60;0.40;;;;;;;17.78;64.16;96488.31;10364504;28;20034;-21
2022/06/25 04:18:14;;;;;;;1.08;0.38;;;;;;;17.77;64.26;96489.16;10366978;28;20120;-22
2022/06/25 04:23:15;;;;;;;1.40;0.40;;;;;;;17.83;64.18;96495.06;10391953;28;20399;-21
2022/06/25 04:33:53;;;;;;;0.98;0.45;;;;;;;17.96;63.82;96485.75;10427227;28;20037;-21
2022/06/25 04:38:54;;;;;;;1.73;0.35;;;;;;;17.64;65.55;96495.06;10397001;28;20382;-21
2022/06/25 04:43:55;;;;;;;1.92;0.57;;;;;;;17.61;65.52;96490.03;10375480;28;20120;-21
2022/06/25 04:48:59;;;;;;;1.90;0.88;;;;;;;17.78;65.68;96495.91;10429348;28;20026;-21
2022/06/25 04:54:03;;;;;;;0.90;0.70;;;;;;;17.57;65.85;96488.34;10430495;28;20026;-21
2022/06/25 04:59:18;;;;;;;1.88;0.80;;;;;;;17.55;65.84;96484.94;10426373;28;20037;-21
2022/06/25 05:04:24;;;;;;;1.15;0.70;;;;;;;17.50;66.44;96489.19;10448621;28;20033;-21
2022/06/25 05:09:26;;;;;;;4.80;0.75;;;;;;;17.62;66.21;96499.28;10398357;28;20029;-22
2022/06/25 05:14:27;;;;;;;1.33;0.52;;;;;;;17.64;65.89;96484.94;10371651;28;20484;-22
2022/06/25 05:19:28;;;;;;;1.73;0.70;;;;;;;17.62;66.42;96494.22;10387953;28;20574;-22
2022/06/25 05:24:29;;;;;;;1.48;1.00;;;;;;;17.71;66.48;96505.22;10424439;28;20021;-21
2022/06/25 05:29:29;;;;;;;2.63;1.00;;;;;;;17.99;65.85;96501.78;10401699;28;20036;-21
2022/06/25 05:34:30;;;;;;;3.08;0.73;;;;;;;18.86;62.61;96467.72;10370635;28;20034;-23
2022/06/25 05:39:30;;;;;;;1.47;0.90;;;;;;;19.50;61.03;96487.63;10370409;28;20038;-21
2022/06/25 05:44:31;;;;;;;1.40;0.67;;;;;;;19.43;60.83;96480.06;10367989;28;20468;-21
2022/06/25 05:49:31;;;;;;;3.03;0.80;;;;;;;19.48;61.25;96496.09;10371725;28;20030;-22
2022/06/25 05:54:32;;;;;;;9.50;0.80;;;;;;;19.50;61.28;96486.78;10386675;28;20350;-21
2022/06/25 05:59:32;;;;;;;0.95;0.50;;;;;;;19.53;61.21;96484.22;10370765;28;20125;-21
2022/06/25 06:04:33;;;;;;;2.08;0.70;;;;;;;19.49;61.48;96465.63;10370920;28;20400;-21
2022/06/25 06:09:34;;;;;;;1.23;0.60;;;;;;;19.59;61.23;96474.03;10370708;28;20065;-21
2022/06/25 06:14:34;;;;;;;0.90;0.60;;;;;;;19.61;61.32;96474.84;10369555;28;20042;-20
2022/06/25 06:19:35;;;;;;;2.43;0.67;;;;;;;19.64;61.48;96474.81;10370641;28;20108;-21
2022/06/25 06:24:35;;;;;;;1.00;0.77;;;;;;;19.77;62.59;96471.31;10408983;28;20029;-20
2022/06/25 06:29:36;;;;;;;2.05;0.90;;;;;;;19.95;64.00;96476.22;10399137;28;20040;-21
2022/06/25 06:34:36;;;;;;;4.53;0.67;;;;;;;19.93;63.28;96472.88;10369206;28;20060;-21
2022/06/25 06:39:37;;;;;;;2.97;0.93;;;;;;;19.83;62.19;96473.81;10369771;28;20358;-21
2022/06/25 06:44:37;;;;;;;0.97;0.70;;;;;;;19.84;61.70;96475.50;10368449;28;20512;-22
2022/06/25 06:49:38;;;;;;;4.23;1.00;;;;;;;19.83;61.61;96471.28;10369874;28;20671;-21
2022/06/25 06:54:38;;;;;;;3.47;1.20;;;;;;;19.89;63.13;96473.72;10405185;28;20092;-21
2022/06/25 06:59:39;;;;;;;6.55;1.40;;;;;;;20.09;63.53;96464.28;10383335;28;20040;-21
2022/06/25 07:04:39;;;;;;;4.60;1.15;;;;;;;20.10;63.36;96460.88;10369083;28;20558;-21
2022/06/25 07:09:41;;;;;;;2.30;0.73;;;;;;;20.02;62.69;96453.25;10369196;28;20034;-21
2022/06/25 07:14:41;;;;;;;1.88;1.08;;;;;;;19.98;61.90;96456.72;10368145;28;20120;-21
2022/06/25 07:19:41;;;;;;;2.97;0.95;;;;;;;19.96;61.60;96447.41;10368357;28;20128;-21
2022/06/25 07:24:42;;;;;;;0.63;0.60;;;;;;;19.94;61.62;96444.88;10410321;28;20553;-22
2022/06/25 07:29:42;;;;;;;4.17;0.77;;;;;;;19.99;62.42;96437.22;10396541;28;20480;-22
2022/06/25 07:34:42;;;;;;;3.60;1.33;;;;;;;20.18;62.23;96443.84;10394619;28;20492;-20
2022/06/25 07:39:43;;;;;;;2.50;1.00;;;;;;;20.26;61.48;96431.88;10403859;28;20480;-21
2022/06/25 07:44:43;;;;;;;6.40;0.93;;;;;;;20.16;61.03;96427.72;10409578;28;20108;-21
2022/06/25 07:55:03;;;;;;;11.63;1.20;;;;;;;20.08;61.47;96427.00;10412352;28;20052;-20
2022/06/25 08:00:04;;;;;;;6.07;1.20;;;;;;;20.04;61.27;96421.13;10381550;28;20037;-20
2022/06/25 08:05:12;;;;;;;7.70;0.80;;;;;;;20.08;61.77;96421.94;10366751;28;20104;-21
2022/06/25 08:10:13;;;;;;;4.03;0.90;;;;;;;20.08;62.17;96421.94;10385837;28;20037;-22
2022/06/25 08:15:14;;;;;;;8.52;0.85;;;;;;;20.29;61.99;96412.34;10399751;28;20668;-20
2022/06/25 08:20:14;;;;;;;4.28;1.10;;;;;;;20.37;61.93;96400.38;10366853;28;20033;-19
2022/06/25 08:25:15;;;;;;;0.90;0.50;;;;;;;20.27;60.82;96401.34;10417676;28;20385;-20
2022/06/25 08:30:18;;;;;;;3.58;0.90;;;;;;;20.20;61.45;96404.84;10385423;28;20044;-23
2022/06/25 08:35:19;;;;;;;5.13;1.00;;;;;;;20.08;61.80;96416.84;10383104;28;20033;-21
2022/06/25 08:40:20;;;;;;;2.57;0.80;;;;;;;20.12;61.89;96409.16;10395670;28;20059;-20
2022/06/25 08:45:21;;;;;;;3.45;2.03;;;;;;;20.30;61.58;96403.84;10415089;28;20033;-21
2022/06/25 08:50:21;;;;;;;5.73;1.00;;;;;;;20.19;61.26;96399.75;10374967;28;20037;-20
2022/06/25 08:55:32;;;;;;;5.10;1.10;;;;;;;20.25;62.07;96405.59;10406686;28;20084;-21
2022/06/25 09:00:36;;;;;;;5.00;0.70;;;;;;;20.40;61.87;96390.16;10373431;28;20042;-22
2022/06/25 09:05:40;;;;;;;1.45;0.95;;;;;;;20.42;61.37;96391.84;10368220;28;20026;-20
2022/06/25 09:10:43;;;;;;;2.08;0.65;;;;;;;20.29;61.17;96388.63;10371937;28;20077;-20
2022/06/25 09:15:45;;;;;;;13.77;1.05;;;;;;;20.23;61.13;96386.13;10371660;28;20489;-20
2022/06/25 09:21:01;;;;;;;4.13;0.70;;;;;;;20.20;61.36;96378.56;10372688;28;20033;-21
2022/06/25 09:26:11;;;;;;;3.55;0.60;;;;;;;20.13;61.28;96370.19;10371848;28;20034;-21
2022/06/25 09:31:12;;;;;;;2.92;1.00;;;;;;;20.17;61.46;96376.06;10372565;28;20040;-20
2022/06/25 09:36:14;;;;;;;2.05;0.80;;;;;;;20.12;61.49;96372.72;10371435;28;20042;-20
2022/06/25 09:41:15;;;;;;;1.35;1.10;;;;;;;20.27;61.99;96375.09;10372578;28;20132;-20
2022/06/25 09:46:15;;;;;;;7.57;0.80;;;;;;;20.46;61.77;96374.84;10406499;28;20037;-20
2022/06/25 09:51:23;;;;;;;3.78;0.93;;;;;;;20.50;61.24;96362.06;10434168;28;20299;-20
2022/06/25 09:56:29;;;;;;;1.90;0.70;;;;;;;20.40;60.63;96368.09;10411448;28;20030;-20
2022/06/25 10:01:32;;;;;;;2.40;0.73;;;;;;;20.32;61.24;96360.59;10371896;28;20030;-20
2022/06/25 10:06:34;;;;;;;5.85;1.00;;;;;;;20.30;61.52;96362.31;10370696;28;20408;-21
2022/06/25 10:11:37;;;;;;;1.63;1.05;;;;;;;20.28;61.52;96353.88;10369646;28;20138;-22
2022/06/25 10:16:38;;;;;;;2.42;0.82;;;;;;;20.25;61.70;96352.22;10370370;28;20033;-21
2022/06/25 10:21:38;;;;;;;3.67;0.80;;;;;;;20.23;61.43;96345.47;10370445;28;20153;-22
2022/06/25 10:26:39;;;;;;;0.70;0.60;;;;;;;20.22;61.23;96348.88;10369533;28;20057;-20
2022/06/25 10:31:39;;;;;;;2.58;0.70;;;;;;;20.38;61.03;96330.88;10369939;28;20030;-20
2022/06/25 10:36:53;;;;;;;1.77;0.70;;;;;;;20.54;60.86;96325.53;10369402;28;20042;-20
2022/06/25 10:47:41;;;;;;;1.50;0.70;;;;;;;20.39;60.86;96315.56;10427099;28;20411;-20
2022/06/25 10:53:02;;;;;;;2.50;0.80;;;;;;;20.31;61.12;96303.84;10429838;28;20069;-20
2022/06/25 10:58:22;;;;;;;1.00;0.60;;;;;;;20.29;61.30;96313.19;10371778;28;20033;-20
2022/06/25 11:03:28;;;;;;;13.18;1.40;;;;;;;20.31;62.13;96303.00;10367983;28;20472;-20
2022/06/25 11:08:36;;;;;;;3.20;1.00;;;;;;;20.33;63.33;96296.22;10368610;28;20069;-20
2022/06/25 11:13:40;;;;;;;2.42;0.93;;;;;;;20.54;62.05;96297.56;10367446;28;20042;-20
2022/06/25 11:18:55;;;;;;;3.85;1.20;;;;;;;20.66;61.21;96296.53;10368718;28;20499;-22
2022/06/25 11:24:12;;;;;;;8.00;0.75;;;;;;;20.59;61.11;96300.88;10367525;28;20037;-21
2022/06/25 11:29:19;;;;;;;16.33;0.90;;;;;;;20.47;61.32;96290.88;10366872;28;20518;-21
2022/06/25 11:34:21;;;;;;;2.13;1.05;;;;;;;20.40;61.34;96296.91;10367470;28;20481;-20
2022/06/25 11:39:21;;;;;;;11.98;0.73;;;;;;;20.36;61.22;96291.88;10367896;28;20042;-21
2022/06/25 11:44:22;;;;;;;7.18;1.17;;;;;;;20.51;62.05;96284.91;10372674;28;20037;-20
2022/06/25 11:49:23;;;;;;;6.57;0.95;;;;;;;20.64;61.68;96283.84;10412166;28;20164;-21
2022/06/25 11:54:24;;;;;;;2.50;0.63;;;;;;;20.60;60.78;96283.91;10407697;28;20052;-20
2022/06/25 11:59:29;;;;;;;1.60;1.42;;;;;;;20.46;61.31;96284.13;10399411;28;20034;-22
2022/06/25 12:04:32;;;;;;;9.57;1.60;;;;;;;20.49;61.95;96283.25;10404811;28;20032;-20
2022/06/25 12:09:32;;;;;;;8.65;1.40;;;;;;;20.48;62.22;96279.84;10399939;28;20030;-20
2022/06/25 12:14:33;;;;;;;2.58;0.80;;;;;;;20.56;62.28;96274.66;10395188;28;20091;-21
2022/06/25 12:19:53;;;;;;;7.70;1.30;;;;;;;20.75;62.02;96261.63;10381338;28;20037;-21
2022/06/25 12:24:56;;;;;;;5.47;0.70;;;;;;;20.75;61.43;96253.16;10364959;28;20061;-21
2022/06/25 12:29:59;;;;;;;7.97;1.00;;;;;;;20.60;61.75;96253.38;10364698;28;20087;-20
2022/06/25 12:35:00;;;;;;;3.72;0.98;;;;;;;20.58;61.42;96245.81;10364316;28;20180;-20
2022/06/25 12:40:00;;;;;;;4.78;0.70;;;;;;;20.43;61.58;96243.47;10364863;28;20454;-20
2022/06/25 12:45:02;;;;;;;5.25;0.80;;;;;;;20.46;61.51;96248.50;10389760;28;20025;-20
2022/06/25 12:50:02;;;;;;;1.30;0.70;;;;;;;20.60;61.77;96251.69;10443702;28;20615;-21
2022/06/25 12:55:04;;;;;;;2.92;1.13;;;;;;;20.75;61.42;96246.38;10412793;28;20172;-19
2022/06/25 13:00:16;;;;;;;1.88;0.80;;;;;;;20.77;60.80;96248.88;10380466;28;20049;-20
2022/06/25 13:05:17;;;;;;;3.17;0.70;;;;;;;20.57;61.21;96241.53;10386022;28;20172;-23
2022/06/25 13:10:18;;;;;;;2.17;0.98;;;;;;;20.54;61.30;96245.88;10402423;28;20552;-20
2022/06/25 13:15:18;;;;;;;5.67;1.30;;;;;;;20.53;61.93;96254.34;10394082;28;20088;-20
2022/06/25 13:20:19;;;;;;;11.35;1.65;;;;;;;20.50;61.57;96255.25;10427422;28;20033;-20
2022/06/25 13:25:20;;;;;;;6.35;1.00;;;;;;;20.53;62.71;96259.41;10380411;28;20088;-20
2022/06/25 13:30:20;;;;;;;5.97;1.47;;;;;;;20.89;63.00;96256.34;10389321;28;20029;-20
2022/06/25 13:35:20;;;;;;;7.70;2.97;;;;;;;20.87;61.99;96256.38;10436065;28;20506;-21
2022/06/25 13:40:21;;;;;;;4.35;1.40;;;;;;;20.68;61.52;96236.28;10382376;28;20045;-21
2022/06/25 13:45:21;;;;;;;8.90;1.60;;;;;;;20.60;61.63;96236.44;10378998;28;20034;-18
2022/06/25 13:50:23;;;;;;;4.00;1.50;;;;;;;20.54;61.90;96236.53;10372705;28;20232;-20
2022/06/25 13:55:23;;;;;;;2.40;0.88;;;;;;;20.54;61.64;96233.16;10386037;28;20304;-21
2022/06/25 14:00:24;;;;;;;2.47;0.85;;;;;;;20.47;61.52;96226.47;10397584;28;20038;-20
2022/06/25 14:05:24;;;;;;;1.85;0.70;;;;;;;20.60;61.96;96226.25;10409122;28;20040;-20
2022/06/25 14:10:24;;;;;;;4.43;1.00;;;;;;;20.80;61.87;96229.31;10371415;28;20313;-20
2022/06/25 14:15:25;;;;;;;1.13;0.80;;;;;;;20.82;61.05;96227.56;10370130;28;20060;-20
2022/06/25 14:20:25;;;;;;;3.40;0.80;;;;;;;20.68;61.30;96214.25;10370531;28;20041;-20
2022/06/25 14:25:26;;;;;;;1.30;0.70;;;;;;;20.55;61.67;96196.69;10369544;28;20377;-19
2022/06/25 14:30:28;;;;;;;1.40;0.90;;;;;;;20.58;61.49;96206.78;10369960;28;20296;-20
2022/06/25 14:35:28;;;;;;;3.22;1.25;;;;;;;20.54;61.47;96213.63;10369254;28;20436;-20
2022/06/25 14:45:48;;;;;;;2.03;1.10;;;;;;;20.66;62.42;96208.38;10427480;28;20036;-20
2022/06/25 14:50:48;;;;;;;2.13;0.83;;;;;;;20.82;61.91;96204.66;10425743;28;20071;-20
2022/06/25 14:55:49;;;;;;;2.53;0.88;;;;;;;20.85;61.28;96202.09;10379436;28;20042;-21
2022/06/25 15:00:49;;;;;;;0.63;0.63;;;;;;;20.73;61.75;96202.28;10369030;28;20509;-22
2022/06/25 15:05:50;;;;;;;2.23;0.83;;;;;;;20.64;61.47;96191.44;10367716;28;20041;-20
2022/06/25 15:10:50;;;;;;;0.40;0.40;;;;;;;20.58;61.47;96191.53;10369335;28;20058;-20
2022/06/25 15:15:51;;;;;;;3.88;1.38;;;;;;;20.47;62.43;96173.91;10367487;28;20328;-20
2022/06/25 15:20:51;;;;;;;3.65;0.98;;;;;;;20.52;61.97;96177.22;10368007;28;20037;-20
2022/06/25 15:25:52;;;;;;;1.48;0.90;;;;;;;20.60;62.55;96179.63;10367626;28;20099;-15
2022/06/25 15:30:53;;;;;;;3.90;0.90;;;;;;;20.80;61.90;96168.25;10367522;28;20030;-20
2022/06/25 15:35:53;;;;;;;1.90;0.82;;;;;;;20.86;61.39;96158.00;10366839;28;20045;-20
2022/06/25 15:40:57;;;;;;;6.93;0.95;;;;;;;20.68;61.61;96145.56;10367540;28;20026;-20
2022/06/25 15:45:58;;;;;;;9.60;1.27;;;;;;;20.66;61.73;96143.91;10398701;28;20059;-20
2022/06/25 15:50:58;;;;;;;7.80;1.27;;;;;;;20.58;61.83;96136.44;10431166;28;20040;-20
2022/06/25 15:55:59;;;;;;;0.80;0.60;;;;;;;20.58;61.68;96126.25;10407337;28;20036;-20
2022/06/25 16:00:59;;;;;;;1.67;0.77;;;;;;;20.80;61.29;96127.53;10371043;28;20297;-20
2022/06/25 16:05:59;;;;;;;1.67;0.80;;;;;;;20.93;60.89;96141.75;10366234;28;20474;-20
2022/06/25 16:11:30;;;;;;;4.20;0.70;;;;;;;20.85;60.85;96142.72;10367411;28;20096;-20
2022/06/25 16:16:20;;;;;;;4.22;0.90;;;;;;;20.71;61.09;96132.78;10371999;28;20496;-20
2022/06/25 16:21:20;;;;;;;1.30;0.60;;;;;;;20.68;61.36;96121.81;10375779;28;20044;-20
2022/06/25 16:26:21;;;;;;;1.37;0.90;;;;;;;20.64;61.30;96120.22;10374456;28;20026;-20
2022/06/25 16:31:21;;;;;;;4.63;1.10;;;;;;;20.48;62.24;96123.91;10374951;28;20065;-20
2022/06/25 16:36:25;;;;;;;4.05;0.90;;;;;;;20.76;60.97;96115.75;10374269;28;20030;-20
2022/06/25 16:41:27;;;;;;;0.73;0.73;;;;;;;20.93;60.64;96106.13;10374330;28;20026;-21
2022/06/25 16:46:30;;;;;;;1.20;0.80;;;;;;;20.90;60.41;96107.88;10414419;28;20065;-19
2022/06/25 16:51:32;;;;;;;5.10;0.77;;;;;;;20.78;60.95;96105.53;10438948;28;20690;-20
2022/06/25 16:56:33;;;;;;;2.95;1.13;;;;;;;20.70;61.14;96104.81;10373116;28;20072;-20
2022/06/25 17:01:33;;;;;;;1.73;1.00;;;;;;;20.64;61.43;96110.03;10373601;28;20046;-20
2022/06/25 17:06:34;;;;;;;1.48;0.70;;;;;;;20.60;61.33;96109.25;10374893;28;20038;-20
2022/06/25 17:11:35;;;;;;;2.80;0.60;;;;;;;20.59;61.52;96112.69;10375018;28;20069;-20
2022/06/25 17:16:36;;;;;;;2.93;0.90;;;;;;;20.76;61.15;96115.75;10374900;28;20077;-19
2022/06/25 17:21:36;;;;;;;0.57;0.52;;;;;;;20.96;60.48;96103.50;10375126;28;20038;-21
2022/06/25 17:26:37;;;;;;;1.25;0.80;;;;;;;20.79;61.26;96105.50;10372734;28;20037;-21
2022/06/25 17:31:38;;;;;;;2.90;0.75;;;;;;;20.78;61.42;96114.00;10373695;28;20064;-19
2022/06/25 17:36:38;;;;;;;1.40;0.52;;;;;;;20.72;61.14;96103.94;10374471;28;20103;-20
2022/06/25 17:41:38;;;;;;;4.77;0.80;;;;;;;20.66;61.20;96104.06;10372270;28;20057;-19
2022/06/25 17:46:40;;;;;;;3.03;0.60;;;;;;;20.80;61.62;96102.09;10414836;28;20035;-19
2022/06/25 17:51:40;;;;;;;6.18;1.27;;;;;;;20.98;61.64;96103.50;10432888;28;20045;-20
2022/06/25 17:56:41;;;;;;;2.83;0.70;;;;;;;20.96;61.14;96111.16;10409521;28;20033;-20
2022/06/25 18:01:41;;;;;;;0.73;0.53;;;;;;;20.76;61.22;96120.84;10371589;28;20476;-20
2022/06/25 18:06:42;;;;;;;1.15;0.45;;;;;;;20.67;61.38;96115.06;10370027;28;20037;-22
2022/06/25 18:11:43;;;;;;;2.10;0.60;;;;;;;20.56;61.65;96110.16;10370645;28;20121;-13
2022/06/25 18:16:43;;;;;;;1.15;0.60;;;;;;;20.65;62.06;96125.25;10369823;28;20029;-16
2022/06/25 18:21:43;;;;;;;6.20;0.77;;;;;;;20.59;61.69;96117.75;10370737;28;20026;-20
2022/06/25 18:26:44;;;;;;;3.67;0.80;;;;;;;20.89;61.49;96137.56;10369471;28;20690;-15
2022/06/25 18:31:44;;;;;;;3.10;1.10;;;;;;;20.99;61.26;96139.06;10370546;28;20030;-15
2022/06/25 18:36:45;;;;;;;1.37;0.50;;;;;;;20.79;61.29;96136.03;10369302;28;20038;-16
2022/06/25 18:41:45;;;;;;;2.47;0.77;;;;;;;20.81;61.59;96156.38;10369735;28;20269;-16
2022/06/25 18:46:46;;;;;;;1.13;0.60;;;;;;;20.72;61.84;96146.38;10414108;28;20029;-17
2022/06/25 18:51:46;;;;;;;1.27;0.70;;;;;;;20.70;61.69;96154.00;10423922;28;20502;-21
2022/06/25 18:56:46;;;;;;;2.73;0.60;;;;;;;20.69;61.84;96154.88;10406778;28;20304;-21
2022/06/25 19:01:47;;;;;;;0.80;0.60;;;;;;;20.82;62.24;96156.31;10369499;28;20038;-21
2022/06/25 19:06:48;;;;;;;1.50;0.70;;;;;;;21.03;63.33;96166.16;10369789;28;20038;-20
2022/06/25 19:11:51;;;;;;;0.68;0.68;;;;;;;20.91;61.50;96163.00;10408769;28;20038;-20
2022/06/25 19:16:51;;;;;;;0.80;0.60;;;;;;;20.77;61.57;96160.66;10425269;28;20037;-20
2022/06/25 19:21:52;;;;;;;1.95;0.70;;;;;;;20.69;61.67;96164.19;10419306;28;20483;-16
2022/06/25 19:26:52;;;;;;;2.95;1.00;;;;;;;20.74;62.23;96173.47;10403812;28;20568;-20
2022/06/25 19:31:53;;;;;;;3.57;0.80;;;;;;;20.70;62.00;96176.06;10423941;28;20511;-20
2022/06/25 19:36:53;;;;;;;1.05;0.63;;;;;;;20.82;62.16;96183.50;10428492;28;20040;-17
2022/06/25 19:41:55;;;;;;;1.42;0.73;;;;;;;20.97;62.18;96196.81;10425217;28;20060;-17
2022/06/25 19:46:55;;;;;;;0.40;0.40;;;;;;;21.00;61.02;96196.78;10400602;28;20041;-21
2022/06/25 19:51:55;;;;;;;1.93;0.73;;;;;;;20.84;61.26;96210.59;10400284;28;20399;-21
2022/06/25 19:56:56;;;;;;;1.10;0.47;;;;;;;20.72;61.45;96215.88;10406355;28;20458;-22
2022/06/25 20:01:56;;;;;;;1.77;0.70;;;;;;;20.70;61.62;96220.16;10434615;28;20294;-21
2022/06/25 20:06:56;;;;;;;0.73;0.53;;;;;;;20.68;61.79;96236.28;10385938;28;20044;-21
2022/06/25 20:11:57;;;;;;;1.30;0.50;;;;;;;20.66;61.79;96238.88;10366242;28;20026;-21
2022/06/25 20:16:57;;;;;;;2.00;0.70;;;;;;;20.77;62.67;96244.63;10366694;28;20788;-21
2022/06/25 20:21:57;;;;;;;1.50;0.80;;;;;;;20.94;62.41;96239.28;10366417;28;20475;-21
2022/06/25 20:26:58;;;;;;;2.33;0.50;;;;;;;21.02;61.30;96250.16;10366569;28;20093;-24
2022/06/25 20:31:58;;;;;;;2.90;0.43;;;;;;;20.88;61.21;96250.41;10366346;28;20037;-22
2022/06/25 20:36:59;;;;;;;0.90;0.50;;;;;;;20.72;61.56;96246.41;10366307;28;20044;-21
2022/06/25 20:41:59;;;;;;;1.07;0.50;;;;;;;20.71;61.49;96262.53;10366235;28;20040;-21
2022/06/25 20:46:59;;;;;;;1.00;0.60;;;;;;;20.69;61.52;96276.13;10414023;28;20033;-21
2022/06/25 20:52:00;;;;;;;0.90;0.60;;;;;;;20.67;61.94;96283.81;10389345;28;20026;-21
2022/06/25 20:57:00;;;;;;;2.08;0.50;;;;;;;20.64;61.72;96288.91;10391364;28;20026;-21
2022/06/25 21:02:01;;;;;;;2.30;1.00;;;;;;;20.91;62.61;96288.53;10369146;28;20519;-21
2022/06/25 21:12:20;;;;;;;0.52;0.47;;;;;;;20.93;61.14;96296.13;10401906;28;20038;-20
2022/06/25 21:17:20;;;;;;;0.60;0.40;;;;;;;20.79;61.29;96296.31;10423642;28;20411;-21
2022/06/25 21:22:21;;;;;;;0.50;0.30;;;;;;;20.72;61.57;96297.28;10427757;28;20024;-21
2022/06/25 21:27:21;;;;;;;0.90;0.57;;;;;;;20.69;61.71;96293.94;10432187;28;20295;-20
2022/06/25 21:32:21;;;;;;;2.57;0.70;;;;;;;20.68;61.68;96297.34;10453597;28;20029;-21
2022/06/25 21:37:22;;;;;;;0.60;0.40;;;;;;;20.65;61.71;96310.13;10400674;28;20277;-20
2022/06/25 21:42:22;;;;;;;2.67;0.70;;;;;;;20.81;61.91;96314.94;10370599;28;20484;-21
2022/06/25 21:47:23;;;;;;;1.67;1.00;;;;;;;21.01;63.54;96327.38;10426759;28;20033;-22
2022/06/25 21:52:23;;;;;;;0.47;0.40;;;;;;;21.02;61.24;96335.00;10427059;28;20417;-21
2022/06/25 21:57:24;;;;;;;0.47;0.40;;;;;;;20.87;61.61;96339.50;10403896;28;20295;-20
2022/06/25 22:02:24;;;;;;;0.83;0.40;;;;;;;20.72;61.49;96337.97;10370469;28;20344;-21
2022/06/25 22:07:24;;;;;;;0.30;0.30;;;;;;;20.73;61.51;96370.19;10370903;28;20488;-20
2022/06/25 22:12:25;;;;;;;0.70;0.40;;;;;;;20.74;61.75;96443.13;10369276;28;20038;-21
2022/06/25 22:17:25;;;;;;;4.47;0.70;;;;;;;20.73;61.77;96477.03;10370848;28;20034;-21
2022/06/25 22:22:25;;;;;;;1.23;0.50;;;;;;;20.71;61.75;96526.28;10369218;28;20037;-21
2022/06/25 22:27:26;;;;;;;0.73;0.60;;;;;;;20.93;62.12;96546.41;10369696;28;20416;-20
2022/06/25 22:32:26;;;;;;;1.33;0.90;;;;;;;21.07;62.58;96548.75;10369032;28;20034;-21
2022/06/25 22:37:27;;;;;;;0.80;0.50;;;;;;;20.97;61.68;96552.28;10368823;28;20298;-20
2022/06/25 22:42:27;;;;;;;0.73;0.40;;;;;;;20.86;61.62;96565.13;10368793;28;20527;-20
2022/06/25 22:47:28;;;;;;;0.63;0.53;;;;;;;20.77;61.59;96564.34;10425427;28;20287;-21
2022/06/25 22:52:29;;;;;;;0.95;0.50;;;;;;;20.73;61.66;96568.63;10418717;28;20124;-22
2022/06/25 22:57:30;;;;;;;0.40;0.30;;;;;;;20.70;61.74;96568.69;10368693;28;20120;-21
2022/06/25 23:02:30;;;;;;;0.32;0.32;;;;;;;20.65;61.69;96544.97;10368236;28;20511;-20
2022/06/25 23:07:30;;;;;;;0.63;0.47;;;;;;;20.68;62.24;96544.97;10368481;28;20037;-20
2022/06/25 23:12:34;;;;;;;1.37;1.00;;;;;;;20.95;63.08;96515.81;10367246;28;20044;-20
2022/06/25 23:17:35;;;;;;;0.93;0.43;;;;;;;21.05;62.16;96520.78;10368769;28;20041;-21
2022/06/25 23:22:35;;;;;;;1.80;0.75;;;;;;;20.91;61.62;96493.81;10366657;28;20121;-21
2022/06/25 23:27:39;;;;;;;0.77;0.40;;;;;;;20.81;61.48;96482.88;10367130;28;20420;-21
2022/06/25 23:32:41;;;;;;;2.75;0.40;;;;;;;20.75;61.55;96495.69;10366864;28;20041;-20
2022/06/25 23:37:41;;;;;;;0.32;0.30;;;;;;;20.69;61.64;96500.00;10367188;28;20504;-24
2022/06/25 23:42:42;;;;;;;1.08;0.73;;;;;;;20.70;61.77;96522.88;10366857;28;20049;-20
2022/06/25 23:47:42;;;;;;;0.63;0.43;;;;;;;20.66;61.84;96518.72;10428559;28;20098;-20
2022/06/25 23:52:43;;;;;;;0.63;0.40;;;;;;;20.76;63.19;96520.28;10412390;28;20866;-20